Schedule Details


Flight Number: CTN345
Departure: Sarajevo (LQSA) at 16:15
Arrival: Franjo Tudman (LDZA) at 17:05
Route: BOSNA L608 KOMAR L187 TEBLI

Weather Information
LQSA 190930Z VRB01KT 9999 SCT050 07/03 Q1021 NOSIG
LDZA 190930Z VRB02KT CAVOK 08/01 Q1022 NOSIG
Schedule Frequency

Route Map